Time;durP1;ratioP1;P1;durP2;ratioP2;P2;SDS_P1;SDS_P2;PMS_P1;PMS_P2;Temp;Humidity;BMP_temperature;BMP_pressure;BME280_temperature;BME280_humidity;BME280_pressure;Samples;Min_cycle;Max_cycle;Signal;HPM_P1;HPM_P2
2023/08/25 00:01:27;;;;;;;;;;;21.30;99.90;;;;;;5053828;28;19932;-69
2023/08/25 00:03:55;;;;;;;;;;;21.30;99.90;;;;;;5053616;28;20396;-69
2023/08/25 00:06:24;;;;;;;;;;;21.40;99.90;;;;;;5045549;28;20346;-68
2023/08/25 00:08:51;;;;;;;;;;;21.40;99.90;;;;;;5053484;28;19925;-68
2023/08/25 00:11:20;;;;;;;;;;;21.30;99.90;;;;;;5052884;28;19933;-69
2023/08/25 00:13:48;;;;;;;;;;;21.30;99.90;;;;;;5053256;28;19929;-68
2023/08/25 00:16:16;;;;;;;;;;;21.20;99.90;;;;;;5053225;28;19929;-69
2023/08/25 00:18:45;;;;;;;;;;;21.20;99.90;;;;;;5053402;28;20303;-69
2023/08/25 00:21:15;;;;;;;;;;;21.40;99.90;;;;;;5053093;28;19931;-69
2023/08/25 00:23:43;;;;;;;;;;;21.30;99.90;;;;;;5053275;28;19982;-69
2023/08/25 00:26:11;;;;;;;;;;;21.10;99.90;;;;;;5053070;28;19928;-69
2023/08/25 00:28:40;;;;;;;;;;;21.20;99.90;;;;;;5052375;28;19929;-69
2023/08/25 00:31:08;;;;;;;;;;;21.10;99.90;;;;;;5052693;28;19947;-68
2023/08/25 00:33:35;;;;;;;;;;;21.10;99.90;;;;;;5053219;28;19972;-68
2023/08/25 00:36:03;;;;;;;;;;;21.10;99.90;;;;;;5052872;28;19932;-68
2023/08/25 00:38:31;;;;;;;;;;;21.10;99.90;;;;;;5052883;28;20441;-68
2023/08/25 00:40:59;;;;;;;;;;;21.10;99.90;;;;;;5052824;28;19925;-68
2023/08/25 00:43:27;;;;;;;;;;;21.10;99.90;;;;;;5052839;28;20311;-68
2023/08/25 00:45:56;;;;;;;;;;;21.20;99.90;;;;;;5052973;28;19971;-68
2023/08/25 00:48:24;;;;;;;;;;;21.20;99.90;;;;;;5051653;28;19928;-68
2023/08/25 00:50:53;;;;;;;;;;;21.20;99.90;;;;;;5050843;28;20010;-68
2023/08/25 00:53:21;;;;;;;;;;;21.10;99.90;;;;;;5050747;28;19925;-68
2023/08/25 00:55:49;;;;;;;;;;;21.10;99.90;;;;;;5050873;28;20461;-68
2023/08/25 00:58:17;;;;;;;;;;;21.10;99.90;;;;;;5050741;28;19932;-68
2023/08/25 01:00:45;;;;;;;;;;;21.10;99.90;;;;;;5050693;28;19929;-68
2023/08/25 01:03:14;;;;;;;;;;;21.00;99.90;;;;;;5051420;28;20479;-68
2023/08/25 01:05:43;;;;;;;;;;;21.00;99.90;;;;;;5050356;28;19946;-68
2023/08/25 01:08:10;;;;;;;;;;;21.00;99.90;;;;;;5050803;28;20339;-68
2023/08/25 01:10:41;;;;;;;;;;;20.90;99.90;;;;;;5051599;28;20391;-68
2023/08/25 01:13:11;;;;;;;;;;;21.00;99.90;;;;;;5050595;28;19955;-68
2023/08/25 01:15:41;;;;;;;;;;;21.00;99.90;;;;;;5050738;28;19982;-68
2023/08/25 01:18:13;;;;;;;;;;;21.00;99.90;;;;;;5050021;28;19970;-68
2023/08/25 01:20:43;;;;;;;;;;;20.90;99.90;;;;;;5050446;28;19925;-68
2023/08/25 01:23:16;;;;;;;;;;;21.00;99.90;;;;;;5050455;28;19924;-68
2023/08/25 01:25:46;;;;;;;;;;;20.90;99.90;;;;;;5049849;28;19951;-68
2023/08/25 01:28:14;;;;;;;;;;;20.90;99.90;;;;;;5049378;28;19925;-67
2023/08/25 01:30:43;;;;;;;;;;;20.90;99.90;;;;;;5051001;28;19990;-68
2023/08/25 01:33:11;;;;;;;;;;;20.90;99.90;;;;;;5049373;28;20024;-68
2023/08/25 01:35:45;;;;;;;;;;;20.90;99.90;;;;;;5050117;28;19935;-68
2023/08/25 01:38:16;;;;;;;;;;;20.90;99.90;;;;;;5050639;28;20303;-68
2023/08/25 01:40:45;;;;;;;;;;;20.90;99.90;;;;;;5047808;28;21687;-68
2023/08/25 01:43:17;;;;;;;;;;;20.90;99.90;;;;;;5049360;28;19924;-67
2023/08/25 01:45:45;;;;;;;;;;;20.80;99.90;;;;;;5047946;28;19928;-68
2023/08/25 01:48:15;;;;;;;;;;;20.80;99.90;;;;;;5049237;28;19924;-68
2023/08/25 01:50:43;;;;;;;;;;;20.80;99.90;;;;;;5049306;28;19942;-68
2023/08/25 01:53:11;;;;;;;;;;;20.90;99.90;;;;;;5050344;28;20377;-67
2023/08/25 01:55:39;;;;;;;;;;;20.90;99.90;;;;;;5050535;28;19928;-68
2023/08/25 01:58:06;;;;;;;;;;;20.80;99.90;;;;;;5049954;28;19933;-68
2023/08/25 02:00:36;;;;;;;;;;;20.90;99.90;;;;;;5047951;28;20047;-68
2023/08/25 02:03:03;;;;;;;;;;;20.80;99.90;;;;;;5050428;28;20095;-68
2023/08/25 02:05:31;;;;;;;;;;;20.80;99.90;;;;;;5049128;28;20346;-68
2023/08/25 02:07:59;;;;;;;;;;;21.00;99.90;;;;;;5050193;28;19928;-68
2023/08/25 02:10:27;;;;;;;;;;;21.00;99.90;;;;;;5048130;28;20549;-68
2023/08/25 02:12:55;;;;;;;;;;;20.90;99.90;;;;;;5049666;28;20351;-68
2023/08/25 02:15:22;;;;;;;;;;;20.90;99.90;;;;;;5050470;28;20307;-68
2023/08/25 02:17:52;;;;;;;;;;;20.90;99.90;;;;;;5051312;28;19924;-68
2023/08/25 02:20:20;;;;;;;;;;;21.00;99.90;;;;;;5050994;28;19936;-67
2023/08/25 02:22:48;;;;;;;;;;;20.90;99.90;;;;;;5051004;28;19925;-68
2023/08/25 02:25:16;;;;;;;;;;;20.90;99.90;;;;;;5050789;28;19925;-67
2023/08/25 02:27:43;;;;;;;;;;;20.90;99.90;;;;;;5051246;28;20419;-68
2023/08/25 02:30:11;;;;;;;;;;;20.90;99.90;;;;;;5050568;28;19929;-68
2023/08/25 02:32:39;;;;;;;;;;;20.90;99.90;;;;;;5043119;28;19924;-67
2023/08/25 02:35:09;;;;;;;;;;;21.10;99.90;;;;;;5050979;28;20311;-68
2023/08/25 02:37:36;;;;;;;;;;;21.10;99.90;;;;;;5050856;28;19925;-67
2023/08/25 02:40:05;;;;;;;;;;;21.10;99.90;;;;;;5050818;28;20454;-69
2023/08/25 02:42:32;;;;;;;;;;;21.10;99.90;;;;;;5050839;28;19924;-68
2023/08/25 02:45:00;;;;;;;;;;;21.30;99.90;;;;;;5050962;28;19935;-68
2023/08/25 02:47:28;;;;;;;;;;;21.20;99.90;;;;;;5050792;28;19924;-68
2023/08/25 02:49:56;;;;;;;;;;;21.20;99.90;;;;;;5050811;28;20418;-67
2023/08/25 02:52:25;;;;;;;;;;;21.20;99.90;;;;;;5053988;28;19990;-67
2023/08/25 02:54:53;;;;;;;;;;;21.10;99.90;;;;;;5054691;28;19929;-68
2023/08/25 02:57:21;;;;;;;;;;;21.10;99.90;;;;;;5055059;28;19974;-68
2023/08/25 02:59:49;;;;;;;;;;;21.10;99.90;;;;;;5054759;28;19928;-68
2023/08/25 03:02:16;;;;;;;;;;;21.10;99.90;;;;;;5054681;28;19951;-67
2023/08/25 03:04:44;;;;;;;;;;;21.10;99.90;;;;;;5054428;28;20019;-69
2023/08/25 03:07:12;;;;;;;;;;;21.30;99.90;;;;;;5054906;28;19925;-68
2023/08/25 03:09:41;;;;;;;;;;;21.40;99.90;;;;;;5054383;28;20399;-67
2023/08/25 03:12:09;;;;;;;;;;;21.30;99.90;;;;;;5054535;28;19979;-68
2023/08/25 03:14:37;;;;;;;;;;;21.20;99.90;;;;;;5054200;28;19939;-68
2023/08/25 03:17:05;;;;;;;;;;;21.20;99.90;;;;;;5050311;28;20333;-68
2023/08/25 03:19:32;;;;;;;;;;;21.20;99.90;;;;;;5052351;28;19925;-68
2023/08/25 03:22:00;;;;;;;;;;;21.20;99.90;;;;;;5053281;28;19924;-67
2023/08/25 03:24:28;;;;;;;;;;;21.00;99.90;;;;;;5051738;28;19925;-68
2023/08/25 03:26:58;;;;;;;;;;;20.90;99.90;;;;;;5052925;28;19928;-68
2023/08/25 03:29:26;;;;;;;;;;;20.80;99.90;;;;;;5051507;28;19933;-68
2023/08/25 03:31:54;;;;;;;;;;;20.90;99.90;;;;;;5052199;28;19924;-68
2023/08/25 03:34:21;;;;;;;;;;;20.90;99.90;;;;;;5049337;28;19931;-67
2023/08/25 03:36:49;;;;;;;;;;;20.90;99.90;;;;;;5052547;28;19937;-68
2023/08/25 03:39:17;;;;;;;;;;;20.90;99.90;;;;;;5050869;28;19924;-68
2023/08/25 03:41:45;;;;;;;;;;;20.90;99.90;;;;;;5052427;28;20384;-67
2023/08/25 03:44:14;;;;;;;;;;;20.90;99.90;;;;;;5053056;28;20400;-68
2023/08/25 03:46:42;;;;;;;;;;;20.70;99.90;;;;;;5053466;28;20659;-69
2023/08/25 03:49:10;;;;;;;;;;;20.80;99.90;;;;;;5050222;28;20304;-68
2023/08/25 03:51:38;;;;;;;;;;;20.80;99.90;;;;;;5053043;28;19931;-68
2023/08/25 03:54:07;;;;;;;;;;;20.90;99.90;;;;;;5079339;22;19927;-66
2023/08/25 03:56:34;;;;;;;;;;;20.90;99.90;;;;;;5072161;28;19924;-66
2023/08/25 03:59:03;;;;;;;;;;;20.90;99.90;;;;;;5072815;28;19925;-66
2023/08/25 04:01:32;;;;;;;;;;;20.80;99.90;;;;;;5072436;28;19987;-67
2023/08/25 04:04:01;;;;;;;;;;;20.70;99.90;;;;;;5070330;28;19925;-66
2023/08/25 04:06:29;;;;;;;;;;;20.80;99.90;;;;;;5053465;28;19928;-66
2023/08/25 04:08:58;;;;;;;;;;;20.70;99.90;;;;;;5052744;28;19924;-66
2023/08/25 04:11:26;;;;;;;;;;;20.90;99.90;;;;;;5048802;28;19929;-66
2023/08/25 04:13:54;;;;;;;;;;;20.90;99.90;;;;;;5051343;28;19924;-66
2023/08/25 04:16:21;;;;;;;;;;;20.90;99.90;;;;;;5052033;28;19982;-65
2023/08/25 04:18:51;;;;;;;;;;;21.00;99.90;;;;;;5048715;28;20011;-66
2023/08/25 04:21:18;;;;;;;;;;;21.00;99.90;;;;;;5051334;28;19932;-66
2023/08/25 04:23:46;;;;;;;;;;;21.00;99.90;;;;;;5050655;28;19979;-66
2023/08/25 04:26:14;;;;;;;;;;;20.90;99.90;;;;;;5052276;28;20392;-66
2023/08/25 04:28:42;;;;;;;;;;;20.80;99.90;;;;;;5050081;28;19931;-66
2023/08/25 04:31:09;;;;;;;;;;;20.80;99.90;;;;;;5047636;28;20395;-66
2023/08/25 04:33:37;;;;;;;;;;;20.90;99.90;;;;;;5050314;28;19939;-66
2023/08/25 04:36:11;;;;;;;;;;;20.90;99.90;;;;;;5049409;28;20052;-70
2023/08/25 04:38:38;;;;;;;;;;;21.00;99.90;;;;;;5043220;28;19933;-65
2023/08/25 04:41:06;;;;;;;;;;;21.20;99.90;;;;;;5042010;28;19939;-65
2023/08/25 04:43:34;;;;;;;;;;;21.40;99.90;;;;;;5042606;28;19932;-65
2023/08/25 04:46:02;;;;;;;;;;;21.50;99.90;;;;;;5041157;28;19986;-65
2023/08/25 04:48:30;;;;;;;;;;;21.40;99.90;;;;;;5040474;28;19960;-65
2023/08/25 04:50:58;;;;;;;;;;;21.00;99.90;;;;;;5041683;28;19936;-65
2023/08/25 04:53:27;;;;;;;;;;;20.60;99.90;;;;;;5042066;28;19959;-65
2023/08/25 04:55:55;;;;;;;;;;;20.20;99.90;;;;;;5039099;28;21277;-65
2023/08/25 04:58:22;;;;;;;;;;;20.20;99.90;;;;;;5041798;28;19936;-65
2023/08/25 05:00:51;;;;;;;;;;;20.40;99.90;;;;;;5042744;28;19928;-65
2023/08/25 05:03:19;;;;;;;;;;;20.60;99.90;;;;;;5040607;28;19971;-65
2023/08/25 05:05:47;;;;;;;;;;;20.60;99.90;;;;;;5041788;28;20009;-65
2023/08/25 05:08:18;;;;;;;;;;;20.60;99.90;;;;;;5040513;28;19932;-65
2023/08/25 05:10:47;;;;;;;;;;;20.80;99.90;;;;;;5040350;28;19929;-65
2023/08/25 05:13:15;;;;;;;;;;;20.90;99.90;;;;;;5042633;28;19937;-65
2023/08/25 05:15:42;;;;;;;;;;;21.00;99.90;;;;;;5040624;28;20300;-65
2023/08/25 05:18:10;;;;;;;;;;;21.10;99.90;;;;;;5040007;28;19928;-65
2023/08/25 05:20:40;;;;;;;;;;;21.00;99.90;;;;;;5041100;28;21300;-65
2023/08/25 05:23:07;;;;;;;;;;;21.20;99.90;;;;;;5041526;28;19932;-65
2023/08/25 05:25:37;;;;;;;;;;;21.20;99.90;;;;;;5042646;28;20669;-65
2023/08/25 05:28:06;;;;;;;;;;;21.30;99.90;;;;;;5039184;28;19944;-65
2023/08/25 05:30:34;;;;;;;;;;;21.40;99.90;;;;;;5041675;28;19978;-64
2023/08/25 05:33:02;;;;;;;;;;;21.40;99.90;;;;;;5041791;28;19972;-65
2023/08/25 05:35:29;;;;;;;;;;;21.30;99.90;;;;;;5040352;28;19933;-65
2023/08/25 05:37:57;;;;;;;;;;;21.30;99.90;;;;;;5041783;28;19933;-65
2023/08/25 05:40:25;;;;;;;;;;;21.40;99.90;;;;;;5040897;28;20502;-65
2023/08/25 05:42:53;;;;;;;;;;;21.50;99.90;;;;;;5042092;28;19933;-64
2023/08/25 05:45:22;;;;;;;;;;;21.40;99.90;;;;;;5041264;28;20323;-65
2023/08/25 05:47:50;;;;;;;;;;;21.40;99.90;;;;;;5042531;28;20499;-65
2023/08/25 05:50:18;;;;;;;;;;;21.30;99.90;;;;;;5039341;28;19964;-64
2023/08/25 05:52:47;;;;;;;;;;;21.20;99.90;;;;;;5040777;28;19929;-65
2023/08/25 05:55:15;;;;;;;;;;;21.00;99.90;;;;;;5041237;28;19933;-65
2023/08/25 05:57:43;;;;;;;;;;;20.90;99.90;;;;;;5041708;28;20346;-65
2023/08/25 06:00:11;;;;;;;;;;;20.70;99.90;;;;;;5043306;28;19936;-66
2023/08/25 06:02:41;;;;;;;;;;;20.60;99.90;;;;;;5048041;28;20015;-69
2023/08/25 06:05:09;;;;;;;;;;;20.50;99.90;;;;;;5049013;28;19925;-68
2023/08/25 06:07:36;;;;;;;;;;;20.30;99.90;;;;;;5046041;28;19967;-68
2023/08/25 06:10:05;;;;;;;;;;;20.20;99.90;;;;;;5047170;28;20384;-67
2023/08/25 06:12:32;;;;;;;;;;;20.20;99.90;;;;;;5047886;28;19947;-69
2023/08/25 06:15:00;;;;;;;;;;;20.10;99.90;;;;;;5046908;28;19929;-67
2023/08/25 06:17:28;;;;;;;;;;;20.10;99.90;;;;;;5048631;28;19925;-67
2023/08/25 06:19:57;;;;;;;;;;;20.10;99.90;;;;;;5046531;28;19979;-67
2023/08/25 06:22:25;;;;;;;;;;;20.10;99.90;;;;;;5045349;28;19986;-67
2023/08/25 06:24:53;;;;;;;;;;;20.10;99.90;;;;;;5045921;28;19986;-67
2023/08/25 06:27:20;;;;;;;;;;;20.20;99.90;;;;;;5045165;28;19925;-67
2023/08/25 06:29:48;;;;;;;;;;;20.20;99.90;;;;;;5051099;28;19978;-67
2023/08/25 06:32:16;;;;;;;;;;;20.30;99.90;;;;;;5051013;28;19924;-68
2023/08/25 06:34:48;;;;;;;;;;;20.30;99.90;;;;;;5051064;28;19979;-67
2023/08/25 06:37:17;;;;;;;;;;;20.30;99.90;;;;;;5051234;28;20023;-67
2023/08/25 06:39:47;;;;;;;;;;;20.50;99.90;;;;;;5049748;28;19925;-67
2023/08/25 06:42:16;;;;;;;;;;;20.60;99.90;;;;;;5039530;28;20380;-67
2023/08/25 06:44:44;;;;;;;;;;;20.70;99.90;;;;;;5040465;28;19929;-67
2023/08/25 06:47:12;;;;;;;;;;;20.80;99.90;;;;;;5045914;28;20396;-67
2023/08/25 06:49:39;;;;;;;;;;;20.90;99.90;;;;;;5040301;28;19929;-67
2023/08/25 06:52:07;;;;;;;;;;;20.90;99.90;;;;;;5051036;28;19925;-67
2023/08/25 06:54:36;;;;;;;;;;;20.90;99.90;;;;;;5050724;28;20002;-68
2023/08/25 06:57:04;;;;;;;;;;;21.00;99.90;;;;;;5051097;28;19963;-67
2023/08/25 06:59:32;;;;;;;;;;;21.00;99.90;;;;;;5051066;28;19932;-67
2023/08/25 07:02:00;;;;;;;;;;;21.10;99.90;;;;;;5050941;28;20374;-67
2023/08/25 07:04:27;;;;;;;;;;;21.10;99.90;;;;;;5051119;28;19933;-66
2023/08/25 07:06:55;;;;;;;;;;;21.10;99.90;;;;;;5050721;28;20295;-67
2023/08/25 07:09:23;;;;;;;;;;;21.20;99.90;;;;;;5051043;28;19925;-67
2023/08/25 07:11:52;;;;;;;;;;;21.30;99.90;;;;;;5040675;28;19932;-67
2023/08/25 07:14:20;;;;;;;;;;;21.30;99.90;;;;;;5045110;28;19970;-67
2023/08/25 07:16:48;;;;;;;;;;;21.30;99.90;;;;;;5042230;28;19932;-67
2023/08/25 07:19:16;;;;;;;;;;;21.30;99.90;;;;;;5037577;28;19929;-67
2023/08/25 07:21:44;;;;;;;5.72;5.07;;;21.30;99.90;;;;;;5047419;28;20461;-66
2023/08/25 07:24:12;;;;;;;5.18;4.68;;;21.30;99.90;;;;;;5050139;28;20255;-66
2023/08/25 07:26:40;;;;;;;5.82;4.93;;;21.30;99.90;;;;;;5049759;28;20203;-66
2023/08/25 07:29:10;;;;;;;6.32;5.53;;;21.20;99.90;;;;;;5050298;28;20212;-66
2023/08/25 07:31:39;;;;;;;6.80;5.72;;;21.10;99.90;;;;;;5046478;28;20662;-66
2023/08/25 07:34:07;;;;;;;12.38;6.20;;;20.90;99.90;;;;;;5050160;28;20230;-66
2023/08/25 07:36:35;;;;;;;7.65;6.00;;;20.80;99.90;;;;;;5050257;28;20215;-66
2023/08/25 07:39:03;;;;;;;8.02;6.90;;;20.80;99.90;;;;;;5053569;28;20256;-66
2023/08/25 07:41:31;;;;;;;10.85;6.10;;;20.80;99.90;;;;;;5053819;28;20199;-66
2023/08/25 07:43:59;;;;;;;9.68;6.78;;;20.90;99.90;;;;;;5053482;28;20712;-66
2023/08/25 07:46:29;;;;;;;7.07;5.78;;;21.00;99.90;;;;;;5053377;28;20200;-66
2023/08/25 07:48:57;;;;;;;10.07;6.63;;;21.10;99.90;;;;;;5045189;28;20203;-66
2023/08/25 07:51:24;;;;;;;10.40;5.53;;;21.30;99.90;;;;;;5047389;28;20205;-66
2023/08/25 07:54:07;;;;;;;;;;;21.40;99.90;;;;;;5042133;28;19964;-67
2023/08/25 07:56:35;;;;;;;;;;;21.50;99.90;;;;;;5041218;28;19975;-67
2023/08/25 07:59:03;;;;;;;;;;;21.50;99.90;;;;;;5054279;28;19971;-68
2023/08/25 08:01:32;;;;;;;;;;;21.60;99.90;;;;;;5054112;28;20078;-68
2023/08/25 08:04:00;;;;;;;;;;;21.70;99.90;;;;;;5051321;28;20276;-67
2023/08/25 08:06:28;;;;;;;;;;;21.80;99.90;;;;;;5048343;28;19924;-67
2023/08/25 08:08:56;;;;;;;;;;;22.00;99.90;;;;;;5037504;28;20319;-68
2023/08/25 08:11:23;;;;;;;;;;;22.10;99.90;;;;;;5045312;28;20011;-67
2023/08/25 08:13:51;;;;;;;;;;;22.10;99.90;;;;;;5045129;28;19929;-67
2023/08/25 08:16:19;;;;;;;;;;;22.00;99.90;;;;;;5053498;28;19925;-67
2023/08/25 08:18:48;;;;;;;;;;;22.00;99.90;;;;;;5053538;28;19931;-68
2023/08/25 08:21:16;;;;;;;;;;;22.00;99.90;;;;;;5045229;28;19970;-68
2023/08/25 08:23:44;;;;;;;;;;;21.90;99.90;;;;;;5045138;28;19928;-69
2023/08/25 08:26:11;;;;;;;;;;;22.00;99.90;;;;;;5045090;28;19925;-68
2023/08/25 08:28:39;;;;;;;;;;;22.00;99.90;;;;;;5045886;28;19932;-67
2023/08/25 08:31:07;;;;;;;;;;;22.20;99.90;;;;;;5052579;28;19929;-67
2023/08/25 08:33:35;;;;;;;;;;;22.10;99.90;;;;;;5053564;28;20016;-67
2023/08/25 08:36:04;;;;;;;;;;;22.00;99.90;;;;;;5053275;28;19925;-68
2023/08/25 08:38:33;;;;;;;;;;;22.00;99.90;;;;;;5046636;28;19968;-68
2023/08/25 08:41:01;;;;;;;;;;;22.00;99.90;;;;;;5051692;28;20307;-67
2023/08/25 08:43:32;;;;;;;;;;;22.10;99.90;;;;;;5053119;28;20403;-67
2023/08/25 08:46:00;;;;;;;;;;;22.30;99.90;;;;;;5053046;28;19925;-68
2023/08/25 08:48:28;;;;;;;;;;;22.30;99.90;;;;;;5044396;28;19925;-67
2023/08/25 08:50:56;;;;;;;;;;;22.40;99.90;;;;;;5052748;28;19979;-68
2023/08/25 08:53:26;;;;;;;;;;;22.60;99.90;;;;;;5053058;28;20307;-68
2023/08/25 08:55:55;;;;;;;;;;;22.60;99.90;;;;;;5052496;28;19925;-67
2023/08/25 08:58:23;;;;;;;;;;;22.60;99.90;;;;;;5044695;28;19925;-67
2023/08/25 09:00:52;;;;;;;;;;;22.50;99.90;;;;;;5052493;28;20024;-68
2023/08/25 09:03:22;;;;;;;;;;;22.50;99.90;;;;;;5052747;28;20445;-67
2023/08/25 09:05:52;;;;;;;;;;;22.40;99.90;;;;;;5052539;28;19925;-67
2023/08/25 09:08:21;;;;;;;;;;;22.30;99.90;;;;;;5047984;28;19925;-67
2023/08/25 09:10:50;;;;;;;;;;;22.30;99.90;;;;;;5048974;28;20342;-67
2023/08/25 09:13:18;;;;;;;;;;;22.30;99.90;;;;;;5052814;28;19925;-67
2023/08/25 09:15:49;;;;;;;;;;;22.40;99.90;;;;;;5036297;28;19925;-68
2023/08/25 09:18:17;;;;;;;;;;;22.50;99.90;;;;;;5044647;28;19925;-69
2023/08/25 09:20:45;;;;;;;;;;;22.90;99.90;;;;;;5052844;28;19932;-67
2023/08/25 09:23:12;;;;;;;;;;;23.10;99.90;;;;;;5048970;28;20331;-67
2023/08/25 09:25:44;;;;;;;;;;;23.30;99.90;;;;;;5040252;28;19974;-67
2023/08/25 09:28:13;;;;;;;;;;;23.30;99.90;;;;;;5051994;28;19958;-68
2023/08/25 09:30:42;;;;;;;;;;;23.20;99.90;;;;;;5049558;28;20445;-67
2023/08/25 09:33:11;;;;;;;;;;;23.20;99.90;;;;;;5052019;28;22422;-68
2023/08/25 09:35:39;;;;;;;;;;;23.30;99.90;;;;;;5052074;28;19964;-67
2023/08/25 09:38:08;;;;;;;;;;;23.20;99.90;;;;;;5043655;28;19925;-67
2023/08/25 09:40:36;;;;;;;;;;;23.30;99.90;;;;;;5051952;28;19936;-67
2023/08/25 09:43:04;;;;;;;;;;;23.30;99.90;;;;;;5051970;28;20195;-67
2023/08/25 09:45:36;;;;;;;;;;;23.40;99.90;;;;;;5043680;28;19931;-68
2023/08/25 09:48:08;;;;;;;;;;;23.50;99.90;;;;;;5051652;28;19978;-67
2023/08/25 09:50:37;;;;;;;;;;;23.60;99.90;;;;;;5051794;28;19932;-68
2023/08/25 09:53:05;;;;;;;;;;;23.70;99.90;;;;;;5051798;28;20388;-67
2023/08/25 09:55:34;;;;;;;;;;;23.80;99.90;;;;;;5043796;28;19925;-66
2023/08/25 09:58:03;;;;;;;;;;;24.00;99.90;;;;;;5041776;28;19925;-65
2023/08/25 10:00:31;;;;;;;;;;;24.10;99.90;;;;;;5044241;28;19925;-66
2023/08/25 10:03:02;;;;;;;;;;;24.30;99.90;;;;;;5051479;28;19931;-66
2023/08/25 10:05:31;;;;;;;;;;;24.30;99.90;;;;;;5051641;28;19929;-66
2023/08/25 10:08:00;;;;;;;;;;;24.50;99.90;;;;;;5051324;28;19925;-67
2023/08/25 10:10:27;;;;;;;;;;;24.60;99.90;;;;;;5051369;28;19925;-66
2023/08/25 10:12:56;;;;;;;;;;;24.90;99.90;;;;;;5051433;28;19929;-66
2023/08/25 10:15:27;;;;;;;;;;;25.20;99.90;;;;;;5051445;28;19978;-66
2023/08/25 10:17:57;;;;;;;;;;;25.50;99.90;;;;;;5042859;28;19925;-65
2023/08/25 10:20:27;;;;;;;;;;;25.50;99.90;;;;;;5043054;28;20387;-66
2023/08/25 10:22:55;;;;;;;;;;;25.60;99.90;;;;;;5051231;28;20342;-66
2023/08/25 10:25:27;;;;;;;;;;;25.50;99.90;;;;;;5047518;28;19925;-66
2023/08/25 10:27:55;;;;;;;;;;;25.50;99.90;;;;;;5039612;28;19925;-66
2023/08/25 10:30:23;;;;;;;;;;;25.40;99.90;;;;;;5049300;28;20387;-66
2023/08/25 10:32:51;;;;;;;;;;;25.40;99.90;;;;;;5051297;28;20395;-66
2023/08/25 10:35:34;;;;;;;;;;;25.30;99.90;;;;;;5051138;28;20024;-66
2023/08/25 10:38:04;;;;;;;;;;;25.30;99.90;;;;;;5050670;28;19929;-66
2023/08/25 10:40:40;;;;;;;;;;;25.30;99.90;;;;;;5051077;28;19928;-66
2023/08/25 10:43:07;;;;;;;;;;;25.50;99.90;;;;;;5051108;28;19925;-66
2023/08/25 10:45:36;;;;;;;;;;;25.90;99.90;;;;;;5051212;28;19925;-66
2023/08/25 10:48:04;;;;;;;;;;;26.30;99.90;;;;;;5042677;28;19925;-66
2023/08/25 10:50:32;;;;;;;;;;;26.60;99.90;;;;;;5043118;28;20007;-66
2023/08/25 10:53:00;;;;;;;;;;;26.70;99.90;;;;;;5050954;28;19929;-67
2023/08/25 10:55:32;;;;;;;;;;;26.90;99.90;;;;;;5046565;28;19925;-67
2023/08/25 10:58:03;;;;;;;;;;;26.90;99.90;;;;;;5039089;28;19933;-66
2023/08/25 11:00:33;;;;;;;;;;;26.90;99.90;;;;;;5042309;28;20011;-67
2023/08/25 11:03:01;;;;;;;;;;;27.10;99.90;;;;;;5050652;28;19934;-66
2023/08/25 11:05:45;;;;;;;;;;;27.40;99.90;;;;;;5047192;28;19925;-67
2023/08/25 11:08:28;;;;;;;;;;;27.80;99.90;;;;;;5038878;28;19931;-67
2023/08/25 11:11:12;;;;;;;;;;;28.00;99.90;;;;;;5038958;28;19924;-66
2023/08/25 11:13:40;;;;;;;;;;;28.00;99.90;;;;;;5048492;28;19987;-67
2023/08/25 11:16:09;;;;;;;;;;;28.10;99.90;;;;;;5054765;28;19947;-67
2023/08/25 11:18:39;;;;;;;;;;;28.30;99.90;;;;;;5054432;28;19979;-67
2023/08/25 11:21:07;;;;;;;;;;;28.20;99.90;;;;;;5054473;28;19932;-66
2023/08/25 11:23:35;;;;;;;;;;;28.10;99.90;;;;;;5054674;28;19925;-67
2023/08/25 11:26:03;;;;;;;;;;;28.10;99.90;;;;;;5054301;28;20317;-66
2023/08/25 11:28:32;;;;;;;;;;;27.90;99.90;;;;;;5054585;28;20372;-66
2023/08/25 11:31:00;;;;;;;;;;;28.00;99.90;;;;;;5054640;28;20315;-67
2023/08/25 11:33:29;;;;;;;;;;;28.10;99.90;;;;;;5046264;28;20087;-66
2023/08/25 11:35:57;;;;;;;;;;;28.20;99.90;;;;;;5046265;28;19931;-66
2023/08/25 11:38:25;;;;;;;;;;;28.40;99.90;;;;;;5053858;28;20281;-66
2023/08/25 11:40:54;;;;;;;;;;;28.60;99.90;;;;;;5054158;28;19929;-67
2023/08/25 11:43:21;;;;;;;;;;;28.70;99.90;;;;;;5054645;28;20342;-66
2023/08/25 11:45:51;;;;;;;;;;;28.40;99.90;;;;;;5054310;28;19928;-67
2023/08/25 11:48:18;;;;;;;;;;;28.20;99.90;;;;;;5053978;28;19931;-67
2023/08/25 11:50:47;;;;;;;;;;;28.00;99.90;;;;;;5053711;28;19929;-66
2023/08/25 11:53:15;;;;;;;;;;;27.60;99.90;;;;;;5053839;28;19925;-66
2023/08/25 11:55:43;;;;;;;;;;;27.30;99.90;;;;;;5048374;28;19925;-66
2023/08/25 11:58:11;;;;;;;;;;;27.00;99.90;;;;;;5051434;28;19973;-66
2023/08/25 12:00:39;;;;;;;;;;;26.90;99.90;;;;;;5053856;28;19990;-66
2023/08/25 12:03:13;;;;;;;;;;;26.90;99.90;;;;;;5053680;28;19970;-66
2023/08/25 12:05:41;;;;;;;;;;;26.90;99.90;;;;;;5053790;28;19932;-66
2023/08/25 12:08:09;;;;;;;;;;;26.80;99.90;;;;;;5053573;28;19932;-67
2023/08/25 12:10:39;;;;;;;;;;;26.70;99.90;;;;;;5053999;28;19932;-67
2023/08/25 12:13:07;;;;;;;;;;;26.50;99.90;;;;;;5053607;28;19947;-66
2023/08/25 12:15:42;;;;;;;;;;;26.30;99.90;;;;;;5049578;28;19925;-66
2023/08/25 12:18:13;;;;;;;;;;;26.20;99.90;;;;;;5050616;28;19968;-66
2023/08/25 12:20:42;;;;;;;;;;;26.10;99.90;;;;;;5053485;28;19929;-66
2023/08/25 12:23:10;;;;;;;;;;;26.10;99.90;;;;;;5053044;28;20399;-66
2023/08/25 12:25:38;;;;;;;;;;;25.90;99.90;;;;;;5053169;28;19925;-66
2023/08/25 12:28:06;;;;;;;;;;;25.90;99.90;;;;;;5053287;28;19924;-65
2023/08/25 12:30:34;;;;;;;;;;;25.80;99.90;;;;;;5052885;28;19924;-66
2023/08/25 12:33:01;;;;;;;;;;;25.80;99.90;;;;;;5053361;28;20351;-66
2023/08/25 12:35:31;;;;;;;;;;;25.70;99.90;;;;;;5053095;28;20330;-66
2023/08/25 12:37:59;;;;;;;;;;;25.60;99.90;;;;;;5045047;28;19929;-66
2023/08/25 12:40:26;;;;;;;;;;;25.60;99.90;;;;;;5036305;28;19944;-66
2023/08/25 12:42:55;;;;;;;;;;;25.50;99.90;;;;;;5047177;28;19925;-66
2023/08/25 12:45:24;;;;;;;;;;;25.50;99.90;;;;;;5051676;28;19931;-66
2023/08/25 12:47:51;;;;;;;;;;;25.50;99.90;;;;;;5053117;28;19970;-66
2023/08/25 12:50:20;;;;;;;;;;;25.40;99.90;;;;;;5050775;28;20002;-66
2023/08/25 12:52:49;;;;;;;;;;;25.50;99.90;;;;;;5046891;28;19932;-66
2023/08/25 12:55:17;;;;;;;;;;;25.60;99.90;;;;;;5052575;28;19932;-66
2023/08/25 12:57:49;;;;;;;;;;;25.60;99.90;;;;;;5052854;28;19925;-66
2023/08/25 13:00:18;;;;;;;;;;;25.70;99.90;;;;;;5052302;28;20461;-66
2023/08/25 13:02:46;;;;;;;;;;;25.80;99.90;;;;;;5052724;28;19928;-66
2023/08/25 13:05:16;;;;;;;;;;;25.80;99.90;;;;;;5052468;28;19925;-66
2023/08/25 13:07:44;;;;;;;;;;;25.70;99.90;;;;;;5044655;28;19932;-66
2023/08/25 13:10:13;;;;;;;;;;;25.60;99.90;;;;;;5052072;28;19986;-66
2023/08/25 13:12:41;;;;;;;;;;;25.70;99.90;;;;;;5044246;28;19925;-66
2023/08/25 13:15:11;;;;;;;;;;;25.60;99.90;;;;;;5052492;28;20433;-66
2023/08/25 13:17:40;;;;;;;;;;;25.80;99.90;;;;;;5036882;28;19979;-66
2023/08/25 13:20:08;;;;;;;;;;;25.80;99.90;;;;;;5052328;28;19925;-66
2023/08/25 13:22:36;;;;;;;;;;;26.10;99.90;;;;;;5052151;28;19964;-66
2023/08/25 13:25:04;;;;;;;;;;;26.40;99.90;;;;;;5052353;28;19925;-65
2023/08/25 13:27:36;;;;;;;;;;;26.50;99.90;;;;;;5044007;28;19928;-66
2023/08/25 13:30:05;;;;;;;;;;;26.70;99.90;;;;;;5052162;28;19932;-65
2023/08/25 13:32:33;;;;;;;;;;;27.30;99.90;;;;;;5051637;28;19979;-67
2023/08/25 13:35:01;;;;;;;;;;;27.90;99.90;;;;;;5051997;28;19924;-67
2023/08/25 13:37:30;;;;;;;;;;;28.60;99.90;;;;;;5052006;28;19932;-66
2023/08/25 13:39:58;;;;;;;;;;;28.80;99.90;;;;;;5051597;28;20387;-66
2023/08/25 13:42:25;;;;;;;;;;;29.00;99.90;;;;;;5051931;28;19978;-67
2023/08/25 13:44:55;;;;;;;;;;;29.20;99.90;;;;;;5051921;28;19925;-67
2023/08/25 13:47:23;;;;;;;;;;;29.40;99.90;;;;;;5051883;28;19929;-66
2023/08/25 13:49:50;;;;;;;;;;;29.10;99.90;;;;;;5051525;28;19935;-66
2023/08/25 13:52:18;;;;;;;;;;;29.10;99.90;;;;;;5051533;28;19925;-66
2023/08/25 13:54:48;;;;;;;;;;;29.20;99.90;;;;;;5046726;28;19925;-66
2023/08/25 13:57:16;;;;;;;;;;;29.00;99.90;;;;;;5048725;28;19924;-66
2023/08/25 13:59:44;;;;;;;;;;;29.00;99.90;;;;;;5051831;28;19974;-66
2023/08/25 14:02:13;;;;;;;;;;;28.90;99.90;;;;;;5051449;28;19928;-67
2023/08/25 14:04:41;;;;;;;;;;;28.70;99.90;;;;;;5043420;28;19929;-66
2023/08/25 14:07:09;;;;;;;;;;;28.40;99.90;;;;;;5051948;28;19924;-66
2023/08/25 14:09:37;;;;;;;;;;;28.20;99.90;;;;;;5043284;28;19924;-66
2023/08/25 14:12:05;;;;;;;;;;;28.00;99.90;;;;;;5051575;28;19928;-66
2023/08/25 14:14:33;;;;;;;;;;;27.80;99.90;;;;;;5051233;28;19979;-66
2023/08/25 14:17:01;;;;;;;;;;;27.50;99.90;;;;;;5045483;28;20289;-66
2023/08/25 14:19:30;;;;;;;;;;;27.40;99.90;;;;;;5049714;28;19925;-66
2023/08/25 14:21:58;;;;;;;;;;;27.30;99.90;;;;;;5051459;28;19924;-66